sensor_id;sensor_type;location;lat;lon;timestamp;temperature;humidity
70234;DHT22;57622;42.630;23.378;2022-08-01T00:01:51;21.51;51.46
70234;DHT22;57622;42.630;23.378;2022-08-01T00:04:16;21.50;51.07
70234;DHT22;57622;42.630;23.378;2022-08-01T00:06:42;21.48;50.61
70234;DHT22;57622;42.630;23.378;2022-08-01T00:09:07;21.50;50.58
70234;DHT22;57622;42.630;23.378;2022-08-01T00:11:32;21.47;49.84
70234;DHT22;57622;42.630;23.378;2022-08-01T00:13:58;21.53;49.96
70234;DHT22;57622;42.630;23.378;2022-08-01T00:16:23;21.55;48.91
70234;DHT22;57622;42.630;23.378;2022-08-01T00:18:50;21.48;49.87
70234;DHT22;57622;42.630;23.378;2022-08-01T00:21:16;21.54;49.83
70234;DHT22;57622;42.630;23.378;2022-08-01T00:23:42;21.55;48.66
70234;DHT22;57622;42.630;23.378;2022-08-01T00:26:08;21.64;47.36
70234;DHT22;57622;42.630;23.378;2022-08-01T00:28:34;21.58;47.53
70234;DHT22;57622;42.630;23.378;2022-08-01T00:30:59;21.66;47.77
70234;DHT22;57622;42.630;23.378;2022-08-01T00:33:25;21.57;48.05
70234;DHT22;57622;42.630;23.378;2022-08-01T00:35:50;21.58;48.04
70234;DHT22;57622;42.630;23.378;2022-08-01T00:38:16;21.50;47.69
70234;DHT22;57622;42.630;23.378;2022-08-01T00:40:41;21.50;49.24
70234;DHT22;57622;42.630;23.378;2022-08-01T00:43:07;21.37;52.66
70234;DHT22;57622;42.630;23.378;2022-08-01T00:45:32;20.96;56.16
70234;DHT22;57622;42.630;23.378;2022-08-01T00:47:58;20.79;56.81
70234;DHT22;57622;42.630;23.378;2022-08-01T00:50:23;20.47;58.14
70234;DHT22;57622;42.630;23.378;2022-08-01T00:52:49;20.07;59.75
70234;DHT22;57622;42.630;23.378;2022-08-01T00:55:15;19.93;60.04
70234;DHT22;57622;42.630;23.378;2022-08-01T00:57:41;19.96;60.06
70234;DHT22;57622;42.630;23.378;2022-08-01T01:00:07;19.71;61.01
70234;DHT22;57622;42.630;23.378;2022-08-01T01:02:33;19.46;61.50
70234;DHT22;57622;42.630;23.378;2022-08-01T01:05:00;19.67;61.20
70234;DHT22;57622;42.630;23.378;2022-08-01T01:10:14;19.63;61.14
70234;DHT22;57622;42.630;23.378;2022-08-01T01:12:50;19.18;62.46
70234;DHT22;57622;42.630;23.378;2022-08-01T01:20:25;18.68;63.95
70234;DHT22;57622;42.630;23.378;2022-08-01T01:31:13;18.92;62.52
70234;DHT22;57622;42.630;23.378;2022-08-01T01:33:40;19.21;62.02
70234;DHT22;57622;42.630;23.378;2022-08-01T01:36:09;19.38;61.59
70234;DHT22;57622;42.630;23.378;2022-08-01T01:38:41;19.63;60.92
70234;DHT22;57622;42.630;23.378;2022-08-01T01:41:08;19.73;60.03
70234;DHT22;57622;42.630;23.378;2022-08-01T01:43:36;19.65;60.04
70234;DHT22;57622;42.630;23.378;2022-08-01T01:46:03;19.67;60.11
70234;DHT22;57622;42.630;23.378;2022-08-01T01:48:30;19.69;59.64
70234;DHT22;57622;42.630;23.378;2022-08-01T01:50:56;19.80;59.36
70234;DHT22;57622;42.630;23.378;2022-08-01T01:53:23;19.86;59.64
70234;DHT22;57622;42.630;23.378;2022-08-01T01:55:52;19.79;60.45
70234;DHT22;57622;42.630;23.378;2022-08-01T01:58:19;19.86;59.79
70234;DHT22;57622;42.630;23.378;2022-08-01T02:00:46;19.84;59.63
70234;DHT22;57622;42.630;23.378;2022-08-01T02:03:13;19.83;59.50
70234;DHT22;57622;42.630;23.378;2022-08-01T02:05:41;19.91;58.93
70234;DHT22;57622;42.630;23.378;2022-08-01T02:08:07;19.56;58.65
70234;DHT22;57622;42.630;23.378;2022-08-01T02:10:35;19.33;58.81
70234;DHT22;57622;42.630;23.378;2022-08-01T02:13:05;19.31;58.20
70234;DHT22;57622;42.630;23.378;2022-08-01T02:15:33;19.01;55.83
70234;DHT22;57622;42.630;23.378;2022-08-01T02:18:00;18.90;56.29
70234;DHT22;57622;42.630;23.378;2022-08-01T02:20:29;18.87;56.29
70234;DHT22;57622;42.630;23.378;2022-08-01T02:23:03;19.04;56.77
70234;DHT22;57622;42.630;23.378;2022-08-01T02:25:39;19.33;55.62
70234;DHT22;57622;42.630;23.378;2022-08-01T02:28:14;19.35;55.33
70234;DHT22;57622;42.630;23.378;2022-08-01T02:30:46;19.35;55.36
70234;DHT22;57622;42.630;23.378;2022-08-01T02:33:16;19.04;53.90
70234;DHT22;57622;42.630;23.378;2022-08-01T02:35:43;19.00;54.15
70234;DHT22;57622;42.630;23.378;2022-08-01T02:38:12;19.05;53.63
70234;DHT22;57622;42.630;23.378;2022-08-01T02:40:41;19.28;53.15
70234;DHT22;57622;42.630;23.378;2022-08-01T02:43:09;19.46;52.30
70234;DHT22;57622;42.630;23.378;2022-08-01T02:45:39;19.65;51.38
70234;DHT22;57622;42.630;23.378;2022-08-01T02:48:10;19.62;51.02
70234;DHT22;57622;42.630;23.378;2022-08-01T02:50:37;19.63;51.40
70234;DHT22;57622;42.630;23.378;2022-08-01T02:53:06;19.71;51.89
70234;DHT22;57622;42.630;23.378;2022-08-01T02:55:35;19.89;51.81
70234;DHT22;57622;42.630;23.378;2022-08-01T02:58:02;20.03;52.37
70234;DHT22;57622;42.630;23.378;2022-08-01T03:00:29;20.07;52.02
70234;DHT22;57622;42.630;23.378;2022-08-01T03:02:56;20.03;51.90
70234;DHT22;57622;42.630;23.378;2022-08-01T03:05:24;20.06;52.68
70234;DHT22;57622;42.630;23.378;2022-08-01T03:07:51;20.20;53.19
70234;DHT22;57622;42.630;23.378;2022-08-01T03:10:18;20.22;53.44
70234;DHT22;57622;42.630;23.378;2022-08-01T03:12:45;20.28;55.21
70234;DHT22;57622;42.630;23.378;2022-08-01T03:15:13;20.31;53.67
70234;DHT22;57622;42.630;23.378;2022-08-01T03:17:41;20.18;53.30
70234;DHT22;57622;42.630;23.378;2022-08-01T03:20:10;20.04;53.17
70234;DHT22;57622;42.630;23.378;2022-08-01T03:22:37;19.90;53.93
70234;DHT22;57622;42.630;23.378;2022-08-01T03:25:05;20.03;53.01
70234;DHT22;57622;42.630;23.378;2022-08-01T03:27:32;20.07;52.86
70234;DHT22;57622;42.630;23.378;2022-08-01T03:29:58;19.96;52.79
70234;DHT22;57622;42.630;23.378;2022-08-01T03:32:27;19.89;53.46
70234;DHT22;57622;42.630;23.378;2022-08-01T03:34:53;20.03;52.23
70234;DHT22;57622;42.630;23.378;2022-08-01T03:37:24;20.01;52.70
70234;DHT22;57622;42.630;23.378;2022-08-01T03:39:55;20.10;53.09
70234;DHT22;57622;42.630;23.378;2022-08-01T03:42:27;20.08;51.64
70234;DHT22;57622;42.630;23.378;2022-08-01T03:45:02;20.16;51.40
70234;DHT22;57622;42.630;23.378;2022-08-01T03:47:33;20.11;52.08
70234;DHT22;57622;42.630;23.378;2022-08-01T03:50:02;20.07;51.52
70234;DHT22;57622;42.630;23.378;2022-08-01T03:52:30;20.18;52.02
70234;DHT22;57622;42.630;23.378;2022-08-01T03:54:59;20.16;50.62
70234;DHT22;57622;42.630;23.378;2022-08-01T03:57:27;20.17;50.73
70234;DHT22;57622;42.630;23.378;2022-08-01T03:59:55;20.07;51.86
70234;DHT22;57622;42.630;23.378;2022-08-01T04:02:22;20.29;52.25
70234;DHT22;57622;42.630;23.378;2022-08-01T04:04:48;20.35;51.52
70234;DHT22;57622;42.630;23.378;2022-08-01T04:07:23;20.35;52.14
70234;DHT22;57622;42.630;23.378;2022-08-01T04:09:49;20.22;51.67
70234;DHT22;57622;42.630;23.378;2022-08-01T04:12:15;20.21;51.63
70234;DHT22;57622;42.630;23.378;2022-08-01T04:14:40;20.13;51.03
70234;DHT22;57622;42.630;23.378;2022-08-01T04:17:05;20.01;50.76
70234;DHT22;57622;42.630;23.378;2022-08-01T04:19:31;20.24;51.33
70234;DHT22;57622;42.630;23.378;2022-08-01T04:21:57;20.27;51.30
70234;DHT22;57622;42.630;23.378;2022-08-01T04:24:23;20.28;51.48
70234;DHT22;57622;42.630;23.378;2022-08-01T04:26:50;20.48;51.31
70234;DHT22;57622;42.630;23.378;2022-08-01T04:29:17;20.45;51.70
70234;DHT22;57622;42.630;23.378;2022-08-01T04:31:46;20.51;51.88
70234;DHT22;57622;42.630;23.378;2022-08-01T04:34:16;20.78;51.33
70234;DHT22;57622;42.630;23.378;2022-08-01T04:36:43;20.85;51.79
70234;DHT22;57622;42.630;23.378;2022-08-01T04:39:09;20.96;51.38
70234;DHT22;57622;42.630;23.378;2022-08-01T04:41:37;21.03;51.20
70234;DHT22;57622;42.630;23.378;2022-08-01T04:44:04;21.04;51.25
70234;DHT22;57622;42.630;23.378;2022-08-01T04:46:29;21.08;50.64
70234;DHT22;57622;42.630;23.378;2022-08-01T04:48:57;21.10;49.66
70234;DHT22;57622;42.630;23.378;2022-08-01T04:51:23;21.22;50.25
70234;DHT22;57622;42.630;23.378;2022-08-01T04:53:49;21.17;50.79
70234;DHT22;57622;42.630;23.378;2022-08-01T04:56:16;21.50;50.77
70234;DHT22;57622;42.630;23.378;2022-08-01T04:58:42;21.69;51.42
70234;DHT22;57622;42.630;23.378;2022-08-01T05:01:10;21.75;50.59
70234;DHT22;57622;42.630;23.378;2022-08-01T05:03:36;21.85;50.82
70234;DHT22;57622;42.630;23.378;2022-08-01T05:06:01;21.94;51.41
70234;DHT22;57622;42.630;23.378;2022-08-01T05:08:27;21.84;51.51
70234;DHT22;57622;42.630;23.378;2022-08-01T05:10:52;21.84;51.03
70234;DHT22;57622;42.630;23.378;2022-08-01T05:13:18;21.89;50.07
70234;DHT22;57622;42.630;23.378;2022-08-01T05:15:44;21.96;49.49
70234;DHT22;57622;42.630;23.378;2022-08-01T05:18:09;22.05;48.87
70234;DHT22;57622;42.630;23.378;2022-08-01T05:20:35;21.92;49.46
70234;DHT22;57622;42.630;23.378;2022-08-01T05:23:02;21.85;49.11
70234;DHT22;57622;42.630;23.378;2022-08-01T05:25:27;21.79;48.43
70234;DHT22;57622;42.630;23.378;2022-08-01T05:27:53;21.77;48.40
70234;DHT22;57622;42.630;23.378;2022-08-01T05:30:18;21.71;49.00
70234;DHT22;57622;42.630;23.378;2022-08-01T05:32:44;21.84;48.84
70234;DHT22;57622;42.630;23.378;2022-08-01T05:35:09;21.82;48.28
70234;DHT22;57622;42.630;23.378;2022-08-01T05:37:35;21.79;49.52
70234;DHT22;57622;42.630;23.378;2022-08-01T05:40:00;21.85;48.82
70234;DHT22;57622;42.630;23.378;2022-08-01T05:42:26;21.91;48.45
70234;DHT22;57622;42.630;23.378;2022-08-01T05:44:52;21.96;47.22
70234;DHT22;57622;42.630;23.378;2022-08-01T05:47:17;22.01;47.06
70234;DHT22;57622;42.630;23.378;2022-08-01T05:49:45;22.17;47.82
70234;DHT22;57622;42.630;23.378;2022-08-01T05:52:10;22.19;46.85
70234;DHT22;57622;42.630;23.378;2022-08-01T05:54:36;22.10;45.95
70234;DHT22;57622;42.630;23.378;2022-08-01T05:57:02;22.19;47.53
70234;DHT22;57622;42.630;23.378;2022-08-01T05:59:28;22.15;46.42
70234;DHT22;57622;42.630;23.378;2022-08-01T06:01:54;22.22;48.10
70234;DHT22;57622;42.630;23.378;2022-08-01T06:04:19;22.33;47.26
70234;DHT22;57622;42.630;23.378;2022-08-01T06:06:45;22.53;46.81
70234;DHT22;57622;42.630;23.378;2022-08-01T06:09:10;22.60;46.80
70234;DHT22;57622;42.630;23.378;2022-08-01T06:11:36;22.37;44.39
70234;DHT22;57622;42.630;23.378;2022-08-01T06:14:01;22.33;44.13
70234;DHT22;57622;42.630;23.378;2022-08-01T06:16:27;22.19;43.58
70234;DHT22;57622;42.630;23.378;2022-08-01T06:18:53;22.20;43.73
70234;DHT22;57622;42.630;23.378;2022-08-01T06:21:18;22.35;43.78
70234;DHT22;57622;42.630;23.378;2022-08-01T06:23:44;22.46;44.71
70234;DHT22;57622;42.630;23.378;2022-08-01T06:26:09;22.39;44.03
70234;DHT22;57622;42.630;23.378;2022-08-01T06:28:36;22.50;44.00
70234;DHT22;57622;42.630;23.378;2022-08-01T06:31:04;22.56;43.20
70234;DHT22;57622;42.630;23.378;2022-08-01T06:33:32;22.77;44.24
70234;DHT22;57622;42.630;23.378;2022-08-01T06:35:58;22.83;43.69
70234;DHT22;57622;42.630;23.378;2022-08-01T06:38:24;22.86;44.43
70234;DHT22;57622;42.630;23.378;2022-08-01T06:40:49;23.08;44.23
70234;DHT22;57622;42.630;23.378;2022-08-01T06:43:15;23.16;43.87
70234;DHT22;57622;42.630;23.378;2022-08-01T06:45:40;23.10;43.13
70234;DHT22;57622;42.630;23.378;2022-08-01T06:48:06;23.10;43.30
70234;DHT22;57622;42.630;23.378;2022-08-01T06:50:32;23.22;43.56
70234;DHT22;57622;42.630;23.378;2022-08-01T06:52:57;23.29;43.19
70234;DHT22;57622;42.630;23.378;2022-08-01T06:55:23;23.26;44.06
70234;DHT22;57622;42.630;23.378;2022-08-01T06:57:50;23.16;43.74
70234;DHT22;57622;42.630;23.378;2022-08-01T07:00:16;23.16;43.20
70234;DHT22;57622;42.630;23.378;2022-08-01T07:02:44;23.32;43.07
70234;DHT22;57622;42.630;23.378;2022-08-01T07:05:10;23.42;43.46
70234;DHT22;57622;42.630;23.378;2022-08-01T07:07:36;23.46;43.15
70234;DHT22;57622;42.630;23.378;2022-08-01T07:10:02;23.55;43.45
70234;DHT22;57622;42.630;23.378;2022-08-01T07:12:28;23.60;43.27
70234;DHT22;57622;42.630;23.378;2022-08-01T07:14:53;23.59;42.21
70234;DHT22;57622;42.630;23.378;2022-08-01T07:17:19;23.63;42.62
70234;DHT22;57622;42.630;23.378;2022-08-01T07:19:46;23.53;43.17
70234;DHT22;57622;42.630;23.378;2022-08-01T07:22:11;23.58;44.04
70234;DHT22;57622;42.630;23.378;2022-08-01T07:24:37;23.81;43.54
70234;DHT22;57622;42.630;23.378;2022-08-01T07:27:02;23.89;43.54
70234;DHT22;57622;42.630;23.378;2022-08-01T07:29:28;23.81;43.25
70234;DHT22;57622;42.630;23.378;2022-08-01T07:31:55;23.79;43.61
70234;DHT22;57622;42.630;23.378;2022-08-01T07:34:22;23.87;44.41
70234;DHT22;57622;42.630;23.378;2022-08-01T07:36:48;24.00;44.49
70234;DHT22;57622;42.630;23.378;2022-08-01T07:39:13;24.17;44.61
70234;DHT22;57622;42.630;23.378;2022-08-01T07:41:39;24.08;42.41
70234;DHT22;57622;42.630;23.378;2022-08-01T07:44:04;24.13;42.67
70234;DHT22;57622;42.630;23.378;2022-08-01T07:46:30;24.21;42.36
70234;DHT22;57622;42.630;23.378;2022-08-01T07:48:56;24.21;43.63
70234;DHT22;57622;42.630;23.378;2022-08-01T07:51:22;24.44;44.45
70234;DHT22;57622;42.630;23.378;2022-08-01T07:53:47;24.48;41.92
70234;DHT22;57622;42.630;23.378;2022-08-01T07:56:13;24.47;41.79
70234;DHT22;57622;42.630;23.378;2022-08-01T07:58:39;24.78;42.36
70234;DHT22;57622;42.630;23.378;2022-08-01T08:01:04;24.64;41.68
70234;DHT22;57622;42.630;23.378;2022-08-01T08:03:30;24.65;41.79
70234;DHT22;57622;42.630;23.378;2022-08-01T08:05:56;24.93;42.44
70234;DHT22;57622;42.630;23.378;2022-08-01T08:08:21;24.80;41.95
70234;DHT22;57622;42.630;23.378;2022-08-01T08:10:47;24.79;42.21
70234;DHT22;57622;42.630;23.378;2022-08-01T08:13:12;24.71;41.52
70234;DHT22;57622;42.630;23.378;2022-08-01T08:15:38;24.73;41.50
70234;DHT22;57622;42.630;23.378;2022-08-01T08:18:04;24.82;41.93
70234;DHT22;57622;42.630;23.378;2022-08-01T08:20:29;24.75;41.83
70234;DHT22;57622;42.630;23.378;2022-08-01T08:22:55;24.90;40.87
70234;DHT22;57622;42.630;23.378;2022-08-01T08:25:23;24.92;42.28
70234;DHT22;57622;42.630;23.378;2022-08-01T08:27:48;24.96;42.34
70234;DHT22;57622;42.630;23.378;2022-08-01T08:30:15;25.10;42.67
70234;DHT22;57622;42.630;23.378;2022-08-01T08:32:41;25.17;40.72
70234;DHT22;57622;42.630;23.378;2022-08-01T08:35:07;25.28;40.14
70234;DHT22;57622;42.630;23.378;2022-08-01T08:37:34;25.23;41.05
70234;DHT22;57622;42.630;23.378;2022-08-01T08:40:00;25.24;40.60
70234;DHT22;57622;42.630;23.378;2022-08-01T08:42:25;25.30;40.00
70234;DHT22;57622;42.630;23.378;2022-08-01T08:44:51;25.43;40.75
70234;DHT22;57622;42.630;23.378;2022-08-01T08:47:19;25.44;41.23
70234;DHT22;57622;42.630;23.378;2022-08-01T08:49:47;25.36;40.93
70234;DHT22;57622;42.630;23.378;2022-08-01T08:52:14;25.65;41.23
70234;DHT22;57622;42.630;23.378;2022-08-01T08:54:41;25.77;39.27
70234;DHT22;57622;42.630;23.378;2022-08-01T08:57:07;25.57;39.05
70234;DHT22;57622;42.630;23.378;2022-08-01T08:59:33;25.54;38.87
70234;DHT22;57622;42.630;23.378;2022-08-01T09:01:59;25.36;38.91
70234;DHT22;57622;42.630;23.378;2022-08-01T09:04:25;25.43;40.03
70234;DHT22;57622;42.630;23.378;2022-08-01T09:06:51;25.71;39.30
70234;DHT22;57622;42.630;23.378;2022-08-01T09:09:17;25.74;38.56
70234;DHT22;57622;42.630;23.378;2022-08-01T09:11:43;25.85;37.78
70234;DHT22;57622;42.630;23.378;2022-08-01T09:14:13;25.81;39.09
70234;DHT22;57622;42.630;23.378;2022-08-01T09:16:43;25.89;37.49
70234;DHT22;57622;42.630;23.378;2022-08-01T09:19:17;25.94;37.27
70234;DHT22;57622;42.630;23.378;2022-08-01T09:22:00;26.09;36.69
70234;DHT22;57622;42.630;23.378;2022-08-01T09:24:28;26.21;37.22
70234;DHT22;57622;42.630;23.378;2022-08-01T09:26:55;26.16;37.44
70234;DHT22;57622;42.630;23.378;2022-08-01T09:29:23;26.29;37.06
70234;DHT22;57622;42.630;23.378;2022-08-01T09:31:49;26.31;38.85
70234;DHT22;57622;42.630;23.378;2022-08-01T09:34:16;26.64;38.78
70234;DHT22;57622;42.630;23.378;2022-08-01T09:36:53;26.83;37.26
70234;DHT22;57622;42.630;23.378;2022-08-01T09:39:37;26.97;37.05
70234;DHT22;57622;42.630;23.378;2022-08-01T09:42:26;26.67;36.44
70234;DHT22;57622;42.630;23.378;2022-08-01T09:44:52;26.70;38.05
70234;DHT22;57622;42.630;23.378;2022-08-01T09:47:19;26.87;37.41
70234;DHT22;57622;42.630;23.378;2022-08-01T09:49:56;27.10;37.42
70234;DHT22;57622;42.630;23.378;2022-08-01T09:52:23;27.02;36.73
70234;DHT22;57622;42.630;23.378;2022-08-01T09:55:00;26.81;36.24
70234;DHT22;57622;42.630;23.378;2022-08-01T09:57:27;26.69;35.92
70234;DHT22;57622;42.630;23.378;2022-08-01T09:59:55;26.87;37.13
70234;DHT22;57622;42.630;23.378;2022-08-01T10:02:34;27.08;36.32
70234;DHT22;57622;42.630;23.378;2022-08-01T10:05:01;27.16;37.08
70234;DHT22;57622;42.630;23.378;2022-08-01T10:07:26;27.16;37.40
70234;DHT22;57622;42.630;23.378;2022-08-01T10:09:52;27.08;37.61
70234;DHT22;57622;42.630;23.378;2022-08-01T10:12:20;27.14;38.26
70234;DHT22;57622;42.630;23.378;2022-08-01T10:14:48;27.20;38.42
70234;DHT22;57622;42.630;23.378;2022-08-01T10:17:19;27.30;37.56
70234;DHT22;57622;42.630;23.378;2022-08-01T10:19:46;27.41;36.02
70234;DHT22;57622;42.630;23.378;2022-08-01T10:22:16;27.62;37.53
70234;DHT22;57622;42.630;23.378;2022-08-01T10:24:44;27.60;36.98
70234;DHT22;57622;42.630;23.378;2022-08-01T10:27:11;27.76;35.97
70234;DHT22;57622;42.630;23.378;2022-08-01T10:32:12;27.69;36.15
70234;DHT22;57622;42.630;23.378;2022-08-01T10:34:38;27.63;35.91
70234;DHT22;57622;42.630;23.378;2022-08-01T10:37:05;27.79;36.20
70234;DHT22;57622;42.630;23.378;2022-08-01T10:39:32;27.85;35.98
70234;DHT22;57622;42.630;23.378;2022-08-01T10:41:59;27.90;35.70
70234;DHT22;57622;42.630;23.378;2022-08-01T10:44:25;27.92;36.56
70234;DHT22;57622;42.630;23.378;2022-08-01T10:46:55;28.13;36.31
70234;DHT22;57622;42.630;23.378;2022-08-01T10:49:25;27.92;36.03
70234;DHT22;57622;42.630;23.378;2022-08-01T10:51:51;27.90;37.71
70234;DHT22;57622;42.630;23.378;2022-08-01T10:54:17;27.72;36.57
70234;DHT22;57622;42.630;23.378;2022-08-01T10:56:48;27.85;37.00
70234;DHT22;57622;42.630;23.378;2022-08-01T10:59:21;28.01;36.88
70234;DHT22;57622;42.630;23.378;2022-08-01T11:05:02;27.62;35.52
70234;DHT22;57622;42.630;23.378;2022-08-01T11:08:10;27.66;35.72
70234;DHT22;57622;42.630;23.378;2022-08-01T11:10:40;27.62;35.95
70234;DHT22;57622;42.630;23.378;2022-08-01T11:13:08;27.93;37.94
70234;DHT22;57622;42.630;23.378;2022-08-01T11:15:37;28.04;36.29
70234;DHT22;57622;42.630;23.378;2022-08-01T11:20:59;28.38;36.36
70234;DHT22;57622;42.630;23.378;2022-08-01T11:23:27;28.27;35.07
70234;DHT22;57622;42.630;23.378;2022-08-01T11:28:20;28.11;35.35
70234;DHT22;57622;42.630;23.378;2022-08-01T11:30:48;28.18;36.87
70234;DHT22;57622;42.630;23.378;2022-08-01T11:33:16;28.43;36.36
70234;DHT22;57622;42.630;23.378;2022-08-01T11:38:35;28.36;34.72
70234;DHT22;57622;42.630;23.378;2022-08-01T11:51:59;27.62;37.71
70234;DHT22;57622;42.630;23.378;2022-08-01T11:54:30;27.59;37.46
70234;DHT22;57622;42.630;23.378;2022-08-01T11:56:58;27.58;36.96
70234;DHT22;57622;42.630;23.378;2022-08-01T11:59:24;27.72;36.80
70234;DHT22;57622;42.630;23.378;2022-08-01T12:01:50;27.76;36.54
70234;DHT22;57622;42.630;23.378;2022-08-01T12:04:15;27.62;37.43
70234;DHT22;57622;42.630;23.378;2022-08-01T12:06:42;27.85;36.76
70234;DHT22;57622;42.630;23.378;2022-08-01T12:09:21;27.93;37.20
70234;DHT22;57622;42.630;23.378;2022-08-01T12:11:47;28.09;37.74
70234;DHT22;57622;42.630;23.378;2022-08-01T12:14:20;28.20;36.93
70234;DHT22;57622;42.630;23.378;2022-08-01T12:16:53;28.10;36.61
70234;DHT22;57622;42.630;23.378;2022-08-01T12:19:20;27.90;36.00
70234;DHT22;57622;42.630;23.378;2022-08-01T12:22:13;27.80;37.62
70234;DHT22;57622;42.630;23.378;2022-08-01T12:24:40;28.11;36.86
70234;DHT22;57622;42.630;23.378;2022-08-01T12:27:07;28.40;37.36
70234;DHT22;57622;42.630;23.378;2022-08-01T12:29:41;28.31;37.40
70234;DHT22;57622;42.630;23.378;2022-08-01T12:32:30;28.16;36.86
70234;DHT22;57622;42.630;23.378;2022-08-01T12:35:02;27.93;37.16
70234;DHT22;57622;42.630;23.378;2022-08-01T12:37:28;27.93;38.30
70234;DHT22;57622;42.630;23.378;2022-08-01T12:39:54;27.93;36.94
70234;DHT22;57622;42.630;23.378;2022-08-01T12:42:19;27.78;37.66
70234;DHT22;57622;42.630;23.378;2022-08-01T12:44:48;27.96;37.43
70234;DHT22;57622;42.630;23.378;2022-08-01T12:47:16;28.07;37.60
70234;DHT22;57622;42.630;23.378;2022-08-01T12:49:43;28.16;36.30
70234;DHT22;57622;42.630;23.378;2022-08-01T12:52:10;28.16;36.09
70234;DHT22;57622;42.630;23.378;2022-08-01T12:55:02;28.18;37.51
70234;DHT22;57622;42.630;23.378;2022-08-01T12:57:28;28.13;36.26
70234;DHT22;57622;42.630;23.378;2022-08-01T12:59:53;27.99;36.19
70234;DHT22;57622;42.630;23.378;2022-08-01T13:02:33;27.89;35.95
70234;DHT22;57622;42.630;23.378;2022-08-01T13:04:59;27.96;36.97
70234;DHT22;57622;42.630;23.378;2022-08-01T13:10:10;28.11;37.27
70234;DHT22;57622;42.630;23.378;2022-08-01T13:12:36;28.07;36.23
70234;DHT22;57622;42.630;23.378;2022-08-01T13:15:17;27.97;36.36
70234;DHT22;57622;42.630;23.378;2022-08-01T13:17:42;28.07;35.51
70234;DHT22;57622;42.630;23.378;2022-08-01T13:20:09;28.16;36.34
70234;DHT22;57622;42.630;23.378;2022-08-01T13:22:36;28.03;36.96
70234;DHT22;57622;42.630;23.378;2022-08-01T13:25:12;28.00;36.47
70234;DHT22;57622;42.630;23.378;2022-08-01T13:27:38;27.94;36.19
70234;DHT22;57622;42.630;23.378;2022-08-01T13:30:11;27.99;36.93
70234;DHT22;57622;42.630;23.378;2022-08-01T13:32:37;27.94;37.39
70234;DHT22;57622;42.630;23.378;2022-08-01T13:35:09;27.96;36.20
70234;DHT22;57622;42.630;23.378;2022-08-01T13:37:35;27.83;36.38
70234;DHT22;57622;42.630;23.378;2022-08-01T13:40:01;27.92;36.66
70234;DHT22;57622;42.630;23.378;2022-08-01T13:42:26;27.99;37.58
70234;DHT22;57622;42.630;23.378;2022-08-01T13:44:54;27.76;36.80
70234;DHT22;57622;42.630;23.378;2022-08-01T13:47:19;27.66;36.84
70234;DHT22;57622;42.630;23.378;2022-08-01T13:49:45;27.70;37.51
70234;DHT22;57622;42.630;23.378;2022-08-01T13:52:11;27.80;37.37
70234;DHT22;57622;42.630;23.378;2022-08-01T13:54:36;27.78;38.87
70234;DHT22;57622;42.630;23.378;2022-08-01T13:57:02;27.76;37.80
70234;DHT22;57622;42.630;23.378;2022-08-01T13:59:28;27.74;38.13
70234;DHT22;57622;42.630;23.378;2022-08-01T14:01:54;27.62;37.87
70234;DHT22;57622;42.630;23.378;2022-08-01T14:04:19;27.72;37.84
70234;DHT22;57622;42.630;23.378;2022-08-01T14:06:46;27.78;38.53
70234;DHT22;57622;42.630;23.378;2022-08-01T14:09:12;27.76;38.31
70234;DHT22;57622;42.630;23.378;2022-08-01T14:11:37;27.67;37.67
70234;DHT22;57622;42.630;23.378;2022-08-01T14:14:03;27.38;37.74
70234;DHT22;57622;42.630;23.378;2022-08-01T14:16:29;27.34;38.40
70234;DHT22;57622;42.630;23.378;2022-08-01T14:18:54;27.41;38.10
70234;DHT22;57622;42.630;23.378;2022-08-01T14:21:20;27.39;38.27
70234;DHT22;57622;42.630;23.378;2022-08-01T14:23:45;27.37;38.18
70234;DHT22;57622;42.630;23.378;2022-08-01T14:26:11;27.15;37.99
70234;DHT22;57622;42.630;23.378;2022-08-01T14:28:38;27.20;38.47
70234;DHT22;57622;42.630;23.378;2022-08-01T14:31:04;27.25;38.39
70234;DHT22;57622;42.630;23.378;2022-08-01T14:33:31;27.25;38.78
70234;DHT22;57622;42.630;23.378;2022-08-01T14:35:57;27.24;38.84
70234;DHT22;57622;42.630;23.378;2022-08-01T14:38:22;27.28;39.73
70234;DHT22;57622;42.630;23.378;2022-08-01T14:40:48;27.24;38.33
70234;DHT22;57622;42.630;23.378;2022-08-01T14:43:17;27.21;38.52
70234;DHT22;57622;42.630;23.378;2022-08-01T14:45:43;27.10;38.53
70234;DHT22;57622;42.630;23.378;2022-08-01T14:48:09;27.24;39.72
70234;DHT22;57622;42.630;23.378;2022-08-01T14:50:35;27.20;39.77
70234;DHT22;57622;42.630;23.378;2022-08-01T14:53:01;27.08;38.48
70234;DHT22;57622;42.630;23.378;2022-08-01T14:55:27;26.95;38.64
70234;DHT22;57622;42.630;23.378;2022-08-01T14:57:53;26.86;38.65
70234;DHT22;57622;42.630;23.378;2022-08-01T15:00:19;26.88;39.01
70234;DHT22;57622;42.630;23.378;2022-08-01T15:02:45;26.98;39.59
70234;DHT22;57622;42.630;23.378;2022-08-01T15:05:11;26.94;39.51
70234;DHT22;57622;42.630;23.378;2022-08-01T15:07:37;27.00;39.25
70234;DHT22;57622;42.630;23.378;2022-08-01T15:10:03;26.98;39.29
70234;DHT22;57622;42.630;23.378;2022-08-01T15:12:29;27.04;39.08
70234;DHT22;57622;42.630;23.378;2022-08-01T15:14:55;26.98;39.13
70234;DHT22;57622;42.630;23.378;2022-08-01T15:17:24;26.88;39.56
70234;DHT22;57622;42.630;23.378;2022-08-01T15:19:52;26.71;40.03
70234;DHT22;57622;42.630;23.378;2022-08-01T15:22:18;26.54;39.32
70234;DHT22;57622;42.630;23.378;2022-08-01T15:24:44;26.59;39.98
70234;DHT22;57622;42.630;23.378;2022-08-01T15:27:10;26.57;39.43
70234;DHT22;57622;42.630;23.378;2022-08-01T15:29:36;26.44;39.93
70234;DHT22;57622;42.630;23.378;2022-08-01T15:32:03;26.47;40.13
70234;DHT22;57622;42.630;23.378;2022-08-01T15:34:30;26.37;39.75
70234;DHT22;57622;42.630;23.378;2022-08-01T15:36:55;26.33;39.86
70234;DHT22;57622;42.630;23.378;2022-08-01T15:39:21;26.29;39.30
70234;DHT22;57622;42.630;23.378;2022-08-01T15:41:46;26.32;39.17
70234;DHT22;57622;42.630;23.378;2022-08-01T15:44:12;26.33;39.31
70234;DHT22;57622;42.630;23.378;2022-08-01T15:46:37;26.29;39.72
70234;DHT22;57622;42.630;23.378;2022-08-01T15:49:04;26.31;39.71
70234;DHT22;57622;42.630;23.378;2022-08-01T15:51:30;26.21;39.87
70234;DHT22;57622;42.630;23.378;2022-08-01T15:53:56;26.28;39.90
70234;DHT22;57622;42.630;23.378;2022-08-01T15:56:21;26.36;39.45
70234;DHT22;57622;42.630;23.378;2022-08-01T15:58:47;26.35;39.66
70234;DHT22;57622;42.630;23.378;2022-08-01T16:01:12;26.33;39.82